sensor_id;sensor_type;location;lat;lon;timestamp;P1;durP1;ratioP1;P2;durP2;ratioP2
9836;SDS011;4957;51.412;6.724;2023-03-20T00:00:33;12.97;;;9.27;;
9836;SDS011;4957;51.412;6.724;2023-03-20T00:03:01;15.37;;;9.33;;
9836;SDS011;4957;51.412;6.724;2023-03-20T00:05:27;13.00;;;8.87;;
9836;SDS011;4957;51.412;6.724;2023-03-20T00:07:54;12.43;;;8.97;;
9836;SDS011;4957;51.412;6.724;2023-03-20T00:10:23;12.23;;;8.57;;
9836;SDS011;4957;51.412;6.724;2023-03-20T00:12:52;13.37;;;8.40;;
9836;SDS011;4957;51.412;6.724;2023-03-20T00:15:28;12.33;;;8.70;;
9836;SDS011;4957;51.412;6.724;2023-03-20T00:18:00;12.97;;;8.87;;
9836;SDS011;4957;51.412;6.724;2023-03-20T00:20:26;13.47;;;8.77;;
9836;SDS011;4957;51.412;6.724;2023-03-20T00:22:52;9.30;;;7.10;;
9836;SDS011;4957;51.412;6.724;2023-03-20T00:25:19;15.07;;;7.70;;
9836;SDS011;4957;51.412;6.724;2023-03-20T00:27:47;9.70;;;7.17;;
9836;SDS011;4957;51.412;6.724;2023-03-20T00:32:53;9.13;;;6.73;;
9836;SDS011;4957;51.412;6.724;2023-03-20T00:35:27;9.00;;;6.30;;
9836;SDS011;4957;51.412;6.724;2023-03-20T00:37:57;9.13;;;6.40;;
9836;SDS011;4957;51.412;6.724;2023-03-20T00:40:25;9.13;;;6.63;;
9836;SDS011;4957;51.412;6.724;2023-03-20T00:42:59;10.17;;;6.60;;
9836;SDS011;4957;51.412;6.724;2023-03-20T00:45:26;10.07;;;6.33;;
9836;SDS011;4957;51.412;6.724;2023-03-20T00:47:54;12.00;;;6.70;;
9836;SDS011;4957;51.412;6.724;2023-03-20T00:50:22;7.87;;;5.93;;
9836;SDS011;4957;51.412;6.724;2023-03-20T00:52:50;9.60;;;7.27;;
9836;SDS011;4957;51.412;6.724;2023-03-20T00:55:19;8.57;;;6.73;;
9836;SDS011;4957;51.412;6.724;2023-03-20T00:57:51;9.50;;;6.13;;
9836;SDS011;4957;51.412;6.724;2023-03-20T01:00:34;9.67;;;7.33;;
9836;SDS011;4957;51.412;6.724;2023-03-20T01:03:10;10.13;;;7.13;;
9836;SDS011;4957;51.412;6.724;2023-03-20T01:05:41;10.53;;;7.67;;
9836;SDS011;4957;51.412;6.724;2023-03-20T01:08:10;10.23;;;6.60;;
9836;SDS011;4957;51.412;6.724;2023-03-20T01:10:41;10.57;;;6.93;;
9836;SDS011;4957;51.412;6.724;2023-03-20T01:13:12;12.57;;;7.20;;
9836;SDS011;4957;51.412;6.724;2023-03-20T01:15:46;10.07;;;6.53;;
9836;SDS011;4957;51.412;6.724;2023-03-20T01:18:13;10.23;;;6.63;;
9836;SDS011;4957;51.412;6.724;2023-03-20T01:20:40;11.00;;;7.60;;
9836;SDS011;4957;51.412;6.724;2023-03-20T01:23:07;8.10;;;6.47;;
9836;SDS011;4957;51.412;6.724;2023-03-20T01:25:33;10.73;;;7.10;;
9836;SDS011;4957;51.412;6.724;2023-03-20T01:27:59;12.57;;;6.97;;
9836;SDS011;4957;51.412;6.724;2023-03-20T01:30:27;10.80;;;7.33;;
9836;SDS011;4957;51.412;6.724;2023-03-20T01:32:54;11.13;;;7.10;;
9836;SDS011;4957;51.412;6.724;2023-03-20T01:35:21;9.20;;;7.37;;
9836;SDS011;4957;51.412;6.724;2023-03-20T01:37:49;10.47;;;7.30;;
9836;SDS011;4957;51.412;6.724;2023-03-20T01:43:00;10.03;;;7.00;;
9836;SDS011;4957;51.412;6.724;2023-03-20T01:45:34;9.40;;;6.47;;
9836;SDS011;4957;51.412;6.724;2023-03-20T01:48:04;11.03;;;7.07;;
9836;SDS011;4957;51.412;6.724;2023-03-20T01:50:41;11.30;;;6.47;;
9836;SDS011;4957;51.412;6.724;2023-03-20T01:53:08;8.93;;;6.47;;
9836;SDS011;4957;51.412;6.724;2023-03-20T01:55:40;11.30;;;6.43;;
9836;SDS011;4957;51.412;6.724;2023-03-20T01:58:09;9.63;;;6.57;;
9836;SDS011;4957;51.412;6.724;2023-03-20T02:00:41;10.43;;;6.20;;
9836;SDS011;4957;51.412;6.724;2023-03-20T02:03:06;10.27;;;6.50;;
9836;SDS011;4957;51.412;6.724;2023-03-20T02:05:33;12.50;;;6.67;;
9836;SDS011;4957;51.412;6.724;2023-03-20T02:08:05;10.97;;;6.33;;
9836;SDS011;4957;51.412;6.724;2023-03-20T02:10:37;10.57;;;5.87;;
9836;SDS011;4957;51.412;6.724;2023-03-20T02:13:04;8.67;;;6.23;;
9836;SDS011;4957;51.412;6.724;2023-03-20T02:15:30;8.80;;;6.07;;
9836;SDS011;4957;51.412;6.724;2023-03-20T02:17:56;12.17;;;6.87;;
9836;SDS011;4957;51.412;6.724;2023-03-20T02:26:04;12.07;;;5.73;;
9836;SDS011;4957;51.412;6.724;2023-03-20T02:28:51;9.40;;;6.17;;
9836;SDS011;4957;51.412;6.724;2023-03-20T02:45:00;10.07;;;6.33;;
9836;SDS011;4957;51.412;6.724;2023-03-20T02:50:17;7.60;;;5.63;;
9836;SDS011;4957;51.412;6.724;2023-03-20T02:58:21;9.13;;;6.20;;
9836;SDS011;4957;51.412;6.724;2023-03-20T03:00:59;9.67;;;6.83;;
9836;SDS011;4957;51.412;6.724;2023-03-20T03:03:41;8.90;;;5.97;;
9836;SDS011;4957;51.412;6.724;2023-03-20T03:06:17;9.70;;;6.40;;
9836;SDS011;4957;51.412;6.724;2023-03-20T03:09:16;11.03;;;7.23;;
9836;SDS011;4957;51.412;6.724;2023-03-20T03:11:47;11.27;;;6.43;;
9836;SDS011;4957;51.412;6.724;2023-03-20T03:14:22;12.20;;;7.23;;
9836;SDS011;4957;51.412;6.724;2023-03-20T03:17:05;10.77;;;6.97;;
9836;SDS011;4957;51.412;6.724;2023-03-20T03:19:33;12.00;;;7.47;;
9836;SDS011;4957;51.412;6.724;2023-03-20T03:22:02;11.10;;;6.47;;
9836;SDS011;4957;51.412;6.724;2023-03-20T03:24:29;10.73;;;6.90;;
9836;SDS011;4957;51.412;6.724;2023-03-20T03:27:00;12.77;;;7.60;;
9836;SDS011;4957;51.412;6.724;2023-03-20T03:29:32;13.00;;;7.40;;
9836;SDS011;4957;51.412;6.724;2023-03-20T03:32:02;12.83;;;7.80;;
9836;SDS011;4957;51.412;6.724;2023-03-20T03:34:31;13.00;;;7.73;;
9836;SDS011;4957;51.412;6.724;2023-03-20T03:37:04;13.27;;;7.77;;
9836;SDS011;4957;51.412;6.724;2023-03-20T03:39:56;15.87;;;7.13;;
9836;SDS011;4957;51.412;6.724;2023-03-20T03:42:29;16.47;;;8.57;;
9836;SDS011;4957;51.412;6.724;2023-03-20T03:45:12;13.37;;;8.70;;
9836;SDS011;4957;51.412;6.724;2023-03-20T03:50:31;13.57;;;7.93;;
9836;SDS011;4957;51.412;6.724;2023-03-20T03:53:09;15.23;;;8.33;;
9836;SDS011;4957;51.412;6.724;2023-03-20T03:55:38;13.47;;;8.40;;
9836;SDS011;4957;51.412;6.724;2023-03-20T03:58:17;13.63;;;8.50;;
9836;SDS011;4957;51.412;6.724;2023-03-20T04:00:46;14.50;;;8.57;;
9836;SDS011;4957;51.412;6.724;2023-03-20T04:03:16;13.27;;;8.37;;
9836;SDS011;4957;51.412;6.724;2023-03-20T04:05:44;15.33;;;9.40;;
9836;SDS011;4957;51.412;6.724;2023-03-20T04:08:12;15.77;;;8.53;;
9836;SDS011;4957;51.412;6.724;2023-03-20T04:10:40;18.47;;;9.50;;
9836;SDS011;4957;51.412;6.724;2023-03-20T04:13:06;14.90;;;9.10;;
9836;SDS011;4957;51.412;6.724;2023-03-20T04:15:32;15.43;;;8.87;;
9836;SDS011;4957;51.412;6.724;2023-03-20T04:17:57;16.67;;;9.10;;
9836;SDS011;4957;51.412;6.724;2023-03-20T04:20:23;16.77;;;9.20;;
9836;SDS011;4957;51.412;6.724;2023-03-20T04:22:49;16.13;;;9.93;;
9836;SDS011;4957;51.412;6.724;2023-03-20T04:25:18;20.33;;;9.93;;
9836;SDS011;4957;51.412;6.724;2023-03-20T04:27:46;20.87;;;10.90;;
9836;SDS011;4957;51.412;6.724;2023-03-20T04:30:12;17.10;;;10.83;;
9836;SDS011;4957;51.412;6.724;2023-03-20T04:32:38;23.40;;;11.57;;
9836;SDS011;4957;51.412;6.724;2023-03-20T04:35:03;19.77;;;10.77;;
9836;SDS011;4957;51.412;6.724;2023-03-20T04:37:30;15.47;;;9.33;;
9836;SDS011;4957;51.412;6.724;2023-03-20T04:39:55;20.60;;;11.73;;
9836;SDS011;4957;51.412;6.724;2023-03-20T04:42:21;18.43;;;10.47;;
9836;SDS011;4957;51.412;6.724;2023-03-20T04:44:47;19.83;;;11.80;;
9836;SDS011;4957;51.412;6.724;2023-03-20T04:47:12;27.27;;;12.57;;
9836;SDS011;4957;51.412;6.724;2023-03-20T04:49:38;23.77;;;12.37;;
9836;SDS011;4957;51.412;6.724;2023-03-20T04:52:04;22.37;;;12.20;;
9836;SDS011;4957;51.412;6.724;2023-03-20T04:54:30;20.83;;;12.13;;
9836;SDS011;4957;51.412;6.724;2023-03-20T04:56:55;22.23;;;11.97;;
9836;SDS011;4957;51.412;6.724;2023-03-20T04:59:21;21.70;;;13.47;;
9836;SDS011;4957;51.412;6.724;2023-03-20T05:01:47;30.07;;;14.00;;
9836;SDS011;4957;51.412;6.724;2023-03-20T05:04:13;26.17;;;13.67;;
9836;SDS011;4957;51.412;6.724;2023-03-20T05:06:38;20.83;;;11.83;;
9836;SDS011;4957;51.412;6.724;2023-03-20T05:09:04;24.17;;;12.20;;
9836;SDS011;4957;51.412;6.724;2023-03-20T05:11:30;22.27;;;12.07;;
9836;SDS011;4957;51.412;6.724;2023-03-20T05:13:55;18.53;;;11.13;;
9836;SDS011;4957;51.412;6.724;2023-03-20T05:16:21;18.07;;;10.00;;
9836;SDS011;4957;51.412;6.724;2023-03-20T05:18:47;23.40;;;10.33;;
9836;SDS011;4957;51.412;6.724;2023-03-20T05:21:12;19.73;;;10.23;;
9836;SDS011;4957;51.412;6.724;2023-03-20T05:23:38;19.47;;;10.93;;
9836;SDS011;4957;51.412;6.724;2023-03-20T05:26:04;21.43;;;11.03;;
9836;SDS011;4957;51.412;6.724;2023-03-20T05:28:30;20.47;;;10.27;;
9836;SDS011;4957;51.412;6.724;2023-03-20T05:30:56;16.13;;;9.80;;
9836;SDS011;4957;51.412;6.724;2023-03-20T05:33:22;17.00;;;8.07;;
9836;SDS011;4957;51.412;6.724;2023-03-20T05:35:47;14.70;;;8.00;;
9836;SDS011;4957;51.412;6.724;2023-03-20T05:38:13;16.83;;;8.57;;
9836;SDS011;4957;51.412;6.724;2023-03-20T05:40:39;15.97;;;9.33;;
9836;SDS011;4957;51.412;6.724;2023-03-20T05:43:06;16.10;;;9.70;;
9836;SDS011;4957;51.412;6.724;2023-03-20T05:45:32;21.17;;;10.27;;
9836;SDS011;4957;51.412;6.724;2023-03-20T05:47:57;16.30;;;9.70;;
9836;SDS011;4957;51.412;6.724;2023-03-20T05:50:23;20.17;;;9.83;;
9836;SDS011;4957;51.412;6.724;2023-03-20T05:52:49;20.07;;;9.73;;
9836;SDS011;4957;51.412;6.724;2023-03-20T05:55:14;16.33;;;9.07;;
9836;SDS011;4957;51.412;6.724;2023-03-20T05:57:40;16.57;;;9.63;;
9836;SDS011;4957;51.412;6.724;2023-03-20T06:00:06;16.80;;;8.80;;
9836;SDS011;4957;51.412;6.724;2023-03-20T06:02:34;17.83;;;8.97;;
9836;SDS011;4957;51.412;6.724;2023-03-20T06:05:00;15.67;;;9.37;;
9836;SDS011;4957;51.412;6.724;2023-03-20T06:07:26;16.30;;;9.33;;
9836;SDS011;4957;51.412;6.724;2023-03-20T06:09:52;16.67;;;8.63;;
9836;SDS011;4957;51.412;6.724;2023-03-20T06:12:18;14.60;;;8.37;;
9836;SDS011;4957;51.412;6.724;2023-03-20T06:14:44;16.90;;;8.43;;
9836;SDS011;4957;51.412;6.724;2023-03-20T06:17:09;15.67;;;7.90;;
9836;SDS011;4957;51.412;6.724;2023-03-20T06:19:35;17.70;;;8.20;;
9836;SDS011;4957;51.412;6.724;2023-03-20T06:22:01;13.40;;;8.20;;
9836;SDS011;4957;51.412;6.724;2023-03-20T06:24:27;12.40;;;7.40;;
9836;SDS011;4957;51.412;6.724;2023-03-20T06:26:52;16.83;;;7.70;;
9836;SDS011;4957;51.412;6.724;2023-03-20T06:29:18;13.83;;;7.17;;
9836;SDS011;4957;51.412;6.724;2023-03-20T06:31:44;11.33;;;6.33;;
9836;SDS011;4957;51.412;6.724;2023-03-20T06:34:10;12.63;;;6.50;;
9836;SDS011;4957;51.412;6.724;2023-03-20T06:36:35;9.50;;;6.70;;
9836;SDS011;4957;51.412;6.724;2023-03-20T06:39:02;14.67;;;7.80;;
9836;SDS011;4957;51.412;6.724;2023-03-20T06:41:28;12.23;;;6.60;;
9836;SDS011;4957;51.412;6.724;2023-03-20T06:43:54;15.63;;;7.73;;
9836;SDS011;4957;51.412;6.724;2023-03-20T06:46:20;12.57;;;7.07;;
9836;SDS011;4957;51.412;6.724;2023-03-20T06:48:46;15.43;;;7.13;;
9836;SDS011;4957;51.412;6.724;2023-03-20T06:51:12;14.67;;;6.87;;
9836;SDS011;4957;51.412;6.724;2023-03-20T06:53:38;12.80;;;6.93;;
9836;SDS011;4957;51.412;6.724;2023-03-20T06:56:06;12.43;;;6.93;;
9836;SDS011;4957;51.412;6.724;2023-03-20T06:58:32;14.43;;;7.23;;
9836;SDS011;4957;51.412;6.724;2023-03-20T07:00:58;12.57;;;7.00;;
9836;SDS011;4957;51.412;6.724;2023-03-20T07:03:24;16.17;;;7.77;;
9836;SDS011;4957;51.412;6.724;2023-03-20T07:05:49;17.20;;;7.97;;
9836;SDS011;4957;51.412;6.724;2023-03-20T07:08:15;13.00;;;7.23;;
9836;SDS011;4957;51.412;6.724;2023-03-20T07:10:41;17.40;;;7.63;;
9836;SDS011;4957;51.412;6.724;2023-03-20T07:13:07;14.67;;;7.73;;
9836;SDS011;4957;51.412;6.724;2023-03-20T07:15:34;20.83;;;8.03;;
9836;SDS011;4957;51.412;6.724;2023-03-20T07:18:00;17.33;;;8.17;;
9836;SDS011;4957;51.412;6.724;2023-03-20T07:20:26;19.63;;;7.73;;
9836;SDS011;4957;51.412;6.724;2023-03-20T07:22:52;18.20;;;8.47;;
9836;SDS011;4957;51.412;6.724;2023-03-20T07:25:19;20.33;;;7.83;;
9836;SDS011;4957;51.412;6.724;2023-03-20T07:27:45;17.43;;;7.67;;
9836;SDS011;4957;51.412;6.724;2023-03-20T07:30:15;15.00;;;7.73;;
9836;SDS011;4957;51.412;6.724;2023-03-20T07:32:42;14.70;;;7.57;;
9836;SDS011;4957;51.412;6.724;2023-03-20T07:35:09;19.40;;;8.93;;
9836;SDS011;4957;51.412;6.724;2023-03-20T07:37:37;13.57;;;7.53;;
9836;SDS011;4957;51.412;6.724;2023-03-20T07:40:03;18.27;;;8.07;;
9836;SDS011;4957;51.412;6.724;2023-03-20T07:42:29;18.10;;;9.60;;
9836;SDS011;4957;51.412;6.724;2023-03-20T07:44:55;19.83;;;9.00;;
9836;SDS011;4957;51.412;6.724;2023-03-20T07:47:21;19.67;;;9.10;;
9836;SDS011;4957;51.412;6.724;2023-03-20T07:49:47;17.83;;;9.33;;
9836;SDS011;4957;51.412;6.724;2023-03-20T07:52:13;21.10;;;9.23;;
9836;SDS011;4957;51.412;6.724;2023-03-20T07:54:38;18.97;;;9.40;;
9836;SDS011;4957;51.412;6.724;2023-03-20T07:57:07;17.97;;;8.80;;
9836;SDS011;4957;51.412;6.724;2023-03-20T07:59:33;15.90;;;8.67;;
9836;SDS011;4957;51.412;6.724;2023-03-20T08:01:59;17.87;;;8.70;;
9836;SDS011;4957;51.412;6.724;2023-03-20T08:04:25;15.53;;;8.60;;
9836;SDS011;4957;51.412;6.724;2023-03-20T08:06:57;15.50;;;7.47;;
9836;SDS011;4957;51.412;6.724;2023-03-20T08:09:46;14.20;;;7.27;;
9836;SDS011;4957;51.412;6.724;2023-03-20T08:12:12;13.60;;;7.03;;
9836;SDS011;4957;51.412;6.724;2023-03-20T08:14:38;16.97;;;7.20;;
9836;SDS011;4957;51.412;6.724;2023-03-20T08:17:06;14.07;;;7.30;;
9836;SDS011;4957;51.412;6.724;2023-03-20T08:19:35;14.40;;;6.93;;
9836;SDS011;4957;51.412;6.724;2023-03-20T08:22:02;16.13;;;6.63;;
9836;SDS011;4957;51.412;6.724;2023-03-20T08:24:28;16.37;;;6.03;;
9836;SDS011;4957;51.412;6.724;2023-03-20T08:26:54;14.33;;;6.57;;
9836;SDS011;4957;51.412;6.724;2023-03-20T08:29:20;12.07;;;5.63;;
9836;SDS011;4957;51.412;6.724;2023-03-20T08:31:46;13.37;;;6.40;;
9836;SDS011;4957;51.412;6.724;2023-03-20T08:34:14;13.83;;;5.93;;
9836;SDS011;4957;51.412;6.724;2023-03-20T08:36:40;10.93;;;5.30;;
9836;SDS011;4957;51.412;6.724;2023-03-20T08:39:06;9.70;;;4.93;;
9836;SDS011;4957;51.412;6.724;2023-03-20T08:41:33;10.93;;;4.87;;
9836;SDS011;4957;51.412;6.724;2023-03-20T08:44:01;10.87;;;4.93;;
9836;SDS011;4957;51.412;6.724;2023-03-20T08:46:27;7.37;;;4.43;;
9836;SDS011;4957;51.412;6.724;2023-03-20T08:48:53;7.87;;;4.67;;
9836;SDS011;4957;51.412;6.724;2023-03-20T08:51:19;13.73;;;4.87;;
9836;SDS011;4957;51.412;6.724;2023-03-20T08:53:47;8.27;;;4.40;;
9836;SDS011;4957;51.412;6.724;2023-03-20T08:56:31;12.20;;;4.40;;
9836;SDS011;4957;51.412;6.724;2023-03-20T08:59:02;8.97;;;3.17;;
9836;SDS011;4957;51.412;6.724;2023-03-20T09:01:34;9.30;;;3.50;;
9836;SDS011;4957;51.412;6.724;2023-03-20T09:04:00;5.33;;;3.37;;
9836;SDS011;4957;51.412;6.724;2023-03-20T09:06:26;5.17;;;2.80;;
9836;SDS011;4957;51.412;6.724;2023-03-20T09:08:54;9.63;;;3.23;;
9836;SDS011;4957;51.412;6.724;2023-03-20T09:11:21;5.73;;;2.60;;
9836;SDS011;4957;51.412;6.724;2023-03-20T09:13:49;7.90;;;3.00;;
9836;SDS011;4957;51.412;6.724;2023-03-20T09:16:18;8.37;;;2.90;;
9836;SDS011;4957;51.412;6.724;2023-03-20T09:18:47;8.80;;;2.90;;
9836;SDS011;4957;51.412;6.724;2023-03-20T09:21:22;5.60;;;2.83;;
9836;SDS011;4957;51.412;6.724;2023-03-20T09:23:48;7.93;;;3.93;;
9836;SDS011;4957;51.412;6.724;2023-03-20T09:26:14;5.53;;;3.23;;
9836;SDS011;4957;51.412;6.724;2023-03-20T09:28:45;8.07;;;2.70;;
9836;SDS011;4957;51.412;6.724;2023-03-20T09:31:18;8.83;;;2.97;;
9836;SDS011;4957;51.412;6.724;2023-03-20T09:33:47;3.87;;;2.10;;
9836;SDS011;4957;51.412;6.724;2023-03-20T09:36:20;3.60;;;2.07;;
9836;SDS011;4957;51.412;6.724;2023-03-20T09:38:46;5.30;;;1.83;;
9836;SDS011;4957;51.412;6.724;2023-03-20T09:47:40;5.93;;;2.10;;
9836;SDS011;4957;51.412;6.724;2023-03-20T09:53:19;5.83;;;2.00;;
9836;SDS011;4957;51.412;6.724;2023-03-20T09:56:03;4.00;;;2.03;;
9836;SDS011;4957;51.412;6.724;2023-03-20T09:58:38;3.87;;;2.40;;
9836;SDS011;4957;51.412;6.724;2023-03-20T10:01:05;3.87;;;1.87;;
9836;SDS011;4957;51.412;6.724;2023-03-20T10:06:11;8.77;;;2.07;;
9836;SDS011;4957;51.412;6.724;2023-03-20T10:08:42;5.73;;;2.27;;
9836;SDS011;4957;51.412;6.724;2023-03-20T10:11:25;3.27;;;1.97;;
9836;SDS011;4957;51.412;6.724;2023-03-20T10:14:01;6.67;;;2.70;;
9836;SDS011;4957;51.412;6.724;2023-03-20T10:22:51;7.23;;;2.17;;
9836;SDS011;4957;51.412;6.724;2023-03-20T10:25:34;3.30;;;2.10;;
9836;SDS011;4957;51.412;6.724;2023-03-20T10:28:05;3.33;;;1.87;;
9836;SDS011;4957;51.412;6.724;2023-03-20T10:41:37;6.70;;;2.07;;
9836;SDS011;4957;51.412;6.724;2023-03-20T10:44:05;6.70;;;2.17;;
9836;SDS011;4957;51.412;6.724;2023-03-20T10:46:40;5.90;;;1.83;;
9836;SDS011;4957;51.412;6.724;2023-03-20T10:49:19;7.57;;;1.80;;
9836;SDS011;4957;51.412;6.724;2023-03-20T10:51:57;6.03;;;1.40;;
9836;SDS011;4957;51.412;6.724;2023-03-20T10:54:27;1.93;;;1.40;;
9836;SDS011;4957;51.412;6.724;2023-03-20T10:57:12;4.27;;;1.57;;
9836;SDS011;4957;51.412;6.724;2023-03-20T10:59:48;3.93;;;1.73;;
9836;SDS011;4957;51.412;6.724;2023-03-20T11:02:16;5.73;;;1.50;;
9836;SDS011;4957;51.412;6.724;2023-03-20T11:04:44;8.60;;;2.10;;
9836;SDS011;4957;51.412;6.724;2023-03-20T11:12:42;4.67;;;1.70;;
9836;SDS011;4957;51.412;6.724;2023-03-20T11:20:30;4.03;;;1.70;;
9836;SDS011;4957;51.412;6.724;2023-03-20T11:23:00;6.60;;;2.47;;
9836;SDS011;4957;51.412;6.724;2023-03-20T11:25:31;3.40;;;1.87;;
9836;SDS011;4957;51.412;6.724;2023-03-20T11:30:55;5.40;;;2.03;;
9836;SDS011;4957;51.412;6.724;2023-03-20T11:33:26;3.67;;;2.07;;
9836;SDS011;4957;51.412;6.724;2023-03-20T11:35:54;4.57;;;1.70;;
9836;SDS011;4957;51.412;6.724;2023-03-20T11:38:22;3.87;;;2.00;;
9836;SDS011;4957;51.412;6.724;2023-03-20T11:40:48;4.30;;;1.60;;
9836;SDS011;4957;51.412;6.724;2023-03-20T11:43:18;3.87;;;2.03;;
9836;SDS011;4957;51.412;6.724;2023-03-20T11:45:56;7.20;;;2.20;;
9836;SDS011;4957;51.412;6.724;2023-03-20T11:48:25;7.53;;;2.30;;
9836;SDS011;4957;51.412;6.724;2023-03-20T11:51:03;6.30;;;2.17;;
9836;SDS011;4957;51.412;6.724;2023-03-20T11:53:36;4.43;;;2.10;;
9836;SDS011;4957;51.412;6.724;2023-03-20T11:56:11;2.10;;;1.40;;
9836;SDS011;4957;51.412;6.724;2023-03-20T11:58:48;4.47;;;1.73;;
9836;SDS011;4957;51.412;6.724;2023-03-20T12:01:20;6.67;;;2.23;;
9836;SDS011;4957;51.412;6.724;2023-03-20T12:03:50;5.57;;;2.20;;
9836;SDS011;4957;51.412;6.724;2023-03-20T12:06:27;4.30;;;1.87;;
9836;SDS011;4957;51.412;6.724;2023-03-20T12:09:17;4.50;;;1.80;;
9836;SDS011;4957;51.412;6.724;2023-03-20T12:12:04;5.97;;;2.10;;
9836;SDS011;4957;51.412;6.724;2023-03-20T12:14:40;6.57;;;2.70;;
9836;SDS011;4957;51.412;6.724;2023-03-20T12:19:58;6.50;;;2.57;;
9836;SDS011;4957;51.412;6.724;2023-03-20T12:22:31;5.40;;;2.30;;
9836;SDS011;4957;51.412;6.724;2023-03-20T12:25:06;5.23;;;2.30;;
9836;SDS011;4957;51.412;6.724;2023-03-20T12:27:43;4.70;;;2.73;;
9836;SDS011;4957;51.412;6.724;2023-03-20T12:30:17;10.03;;;2.80;;
9836;SDS011;4957;51.412;6.724;2023-03-20T12:32:53;6.43;;;2.73;;
9836;SDS011;4957;51.412;6.724;2023-03-20T12:35:31;6.17;;;2.93;;
9836;SDS011;4957;51.412;6.724;2023-03-20T12:38:17;11.37;;;3.67;;
9836;SDS011;4957;51.412;6.724;2023-03-20T12:41:10;4.90;;;2.90;;
9836;SDS011;4957;51.412;6.724;2023-03-20T12:43:46;9.57;;;3.17;;
9836;SDS011;4957;51.412;6.724;2023-03-20T12:55:07;10.53;;;3.77;;
9836;SDS011;4957;51.412;6.724;2023-03-20T12:57:43;5.73;;;2.93;;
9836;SDS011;4957;51.412;6.724;2023-03-20T13:00:23;8.03;;;2.70;;
9836;SDS011;4957;51.412;6.724;2023-03-20T13:03:05;8.10;;;2.83;;
9836;SDS011;4957;51.412;6.724;2023-03-20T13:05:41;3.83;;;2.20;;
9836;SDS011;4957;51.412;6.724;2023-03-20T13:10:48;3.77;;;2.17;;
9836;SDS011;4957;51.412;6.724;2023-03-20T13:13:21;5.07;;;2.00;;
9836;SDS011;4957;51.412;6.724;2023-03-20T13:16:05;6.00;;;2.20;;
9836;SDS011;4957;51.412;6.724;2023-03-20T13:21:34;5.50;;;2.23;;
9836;SDS011;4957;51.412;6.724;2023-03-20T13:26:51;6.50;;;2.40;;
9836;SDS011;4957;51.412;6.724;2023-03-20T13:37:43;7.60;;;2.40;;
9836;SDS011;4957;51.412;6.724;2023-03-20T13:40:19;10.73;;;2.70;;
9836;SDS011;4957;51.412;6.724;2023-03-20T13:45:20;5.83;;;2.80;;
9836;SDS011;4957;51.412;6.724;2023-03-20T13:48:00;7.23;;;2.53;;
9836;SDS011;4957;51.412;6.724;2023-03-20T13:58:35;5.67;;;2.07;;
9836;SDS011;4957;51.412;6.724;2023-03-20T14:03:58;4.13;;;1.70;;
9836;SDS011;4957;51.412;6.724;2023-03-20T14:08:52;6.47;;;2.30;;
9836;SDS011;4957;51.412;6.724;2023-03-20T14:14:11;10.73;;;2.80;;
9836;SDS011;4957;51.412;6.724;2023-03-20T14:17:01;6.83;;;3.40;;
9836;SDS011;4957;51.412;6.724;2023-03-20T14:19:48;5.47;;;2.67;;
9836;SDS011;4957;51.412;6.724;2023-03-20T14:22:19;18.43;;;7.47;;
9836;SDS011;4957;51.412;6.724;2023-03-20T14:25:05;23.07;;;8.57;;
9836;SDS011;4957;51.412;6.724;2023-03-20T14:27:57;13.27;;;6.40;;
9836;SDS011;4957;51.412;6.724;2023-03-20T14:30:40;10.27;;;4.50;;
9836;SDS011;4957;51.412;6.724;2023-03-20T14:41:01;11.20;;;5.77;;
9836;SDS011;4957;51.412;6.724;2023-03-20T14:54:52;8.47;;;2.83;;
9836;SDS011;4957;51.412;6.724;2023-03-20T14:57:32;9.27;;;3.00;;
9836;SDS011;4957;51.412;6.724;2023-03-20T14:59:58;9.23;;;2.43;;
9836;SDS011;4957;51.412;6.724;2023-03-20T15:02:28;10.33;;;4.03;;
9836;SDS011;4957;51.412;6.724;2023-03-20T15:04:58;12.90;;;4.60;;
9836;SDS011;4957;51.412;6.724;2023-03-20T15:07:26;11.10;;;4.37;;
9836;SDS011;4957;51.412;6.724;2023-03-20T15:09:55;16.63;;;5.37;;
9836;SDS011;4957;51.412;6.724;2023-03-20T15:12:25;13.77;;;4.00;;
9836;SDS011;4957;51.412;6.724;2023-03-20T15:14:56;14.83;;;3.37;;
9836;SDS011;4957;51.412;6.724;2023-03-20T15:20:14;6.90;;;2.80;;
9836;SDS011;4957;51.412;6.724;2023-03-20T15:25:15;9.43;;;3.20;;
9836;SDS011;4957;51.412;6.724;2023-03-20T15:27:42;6.97;;;2.83;;
9836;SDS011;4957;51.412;6.724;2023-03-20T15:30:09;9.03;;;2.90;;
9836;SDS011;4957;51.412;6.724;2023-03-20T15:32:39;9.97;;;2.80;;
9836;SDS011;4957;51.412;6.724;2023-03-20T15:35:09;7.23;;;2.53;;
9836;SDS011;4957;51.412;6.724;2023-03-20T15:37:44;4.43;;;2.67;;
9836;SDS011;4957;51.412;6.724;2023-03-20T15:40:12;9.40;;;3.20;;
9836;SDS011;4957;51.412;6.724;2023-03-20T15:43:24;6.57;;;3.00;;
9836;SDS011;4957;51.412;6.724;2023-03-20T15:45:43;9.20;;;3.60;;
9836;SDS011;4957;51.412;6.724;2023-03-20T15:48:16;7.47;;;3.07;;
9836;SDS011;4957;51.412;6.724;2023-03-20T15:50:45;9.63;;;3.47;;
9836;SDS011;4957;51.412;6.724;2023-03-20T15:53:20;12.83;;;4.30;;
9836;SDS011;4957;51.412;6.724;2023-03-20T15:55:57;12.57;;;3.50;;
9836;SDS011;4957;51.412;6.724;2023-03-20T15:58:27;5.77;;;3.33;;
9836;SDS011;4957;51.412;6.724;2023-03-20T16:00:56;7.27;;;3.27;;
9836;SDS011;4957;51.412;6.724;2023-03-20T16:03:23;10.80;;;3.97;;
9836;SDS011;4957;51.412;6.724;2023-03-20T16:05:51;7.73;;;4.47;;
9836;SDS011;4957;51.412;6.724;2023-03-20T16:10:46;5.80;;;3.23;;
9836;SDS011;4957;51.412;6.724;2023-03-20T16:13:12;7.40;;;3.30;;
9836;SDS011;4957;51.412;6.724;2023-03-20T16:15:42;8.57;;;3.20;;
9836;SDS011;4957;51.412;6.724;2023-03-20T16:18:09;9.73;;;3.00;;
9836;SDS011;4957;51.412;6.724;2023-03-20T16:20:39;11.90;;;4.30;;
9836;SDS011;4957;51.412;6.724;2023-03-20T16:23:13;10.00;;;3.77;;
9836;SDS011;4957;51.412;6.724;2023-03-20T16:25:58;10.27;;;4.00;;
9836;SDS011;4957;51.412;6.724;2023-03-20T16:28:26;12.70;;;4.40;;
9836;SDS011;4957;51.412;6.724;2023-03-20T16:30:52;8.07;;;3.40;;
9836;SDS011;4957;51.412;6.724;2023-03-20T16:33:29;7.40;;;3.27;;
9836;SDS011;4957;51.412;6.724;2023-03-20T16:35:54;10.67;;;3.00;;
9836;SDS011;4957;51.412;6.724;2023-03-20T16:38:28;8.20;;;2.93;;
9836;SDS011;4957;51.412;6.724;2023-03-20T16:41:13;8.73;;;3.50;;
9836;SDS011;4957;51.412;6.724;2023-03-20T16:43:57;7.93;;;3.43;;
9836;SDS011;4957;51.412;6.724;2023-03-20T16:46:24;7.37;;;3.00;;
9836;SDS011;4957;51.412;6.724;2023-03-20T16:48:55;14.03;;;3.70;;
9836;SDS011;4957;51.412;6.724;2023-03-20T16:51:23;11.37;;;3.33;;
9836;SDS011;4957;51.412;6.724;2023-03-20T16:53:55;9.13;;;2.97;;
9836;SDS011;4957;51.412;6.724;2023-03-20T16:58:53;14.53;;;3.80;;
9836;SDS011;4957;51.412;6.724;2023-03-20T17:01:20;8.57;;;3.53;;
9836;SDS011;4957;51.412;6.724;2023-03-20T17:08:53;9.93;;;3.30;;
9836;SDS011;4957;51.412;6.724;2023-03-20T17:11:36;12.63;;;3.93;;
9836;SDS011;4957;51.412;6.724;2023-03-20T17:14:03;11.63;;;4.23;;
9836;SDS011;4957;51.412;6.724;2023-03-20T17:16:29;8.40;;;3.43;;
9836;SDS011;4957;51.412;6.724;2023-03-20T17:18:59;9.20;;;3.87;;
9836;SDS011;4957;51.412;6.724;2023-03-20T17:21:30;13.33;;;3.57;;
9836;SDS011;4957;51.412;6.724;2023-03-20T17:23:56;12.47;;;3.33;;
9836;SDS011;4957;51.412;6.724;2023-03-20T17:26:22;7.43;;;3.13;;
9836;SDS011;4957;51.412;6.724;2023-03-20T17:28:48;11.70;;;3.63;;
9836;SDS011;4957;51.412;6.724;2023-03-20T17:31:14;9.03;;;2.80;;
9836;SDS011;4957;51.412;6.724;2023-03-20T17:33:41;11.13;;;3.30;;
9836;SDS011;4957;51.412;6.724;2023-03-20T17:38:45;13.93;;;3.27;;
9836;SDS011;4957;51.412;6.724;2023-03-20T17:41:14;9.57;;;3.17;;
9836;SDS011;4957;51.412;6.724;2023-03-20T17:43:42;9.07;;;2.73;;
9836;SDS011;4957;51.412;6.724;2023-03-20T17:46:27;7.17;;;2.97;;
9836;SDS011;4957;51.412;6.724;2023-03-20T17:48:57;9.70;;;3.10;;
9836;SDS011;4957;51.412;6.724;2023-03-20T17:51:24;7.43;;;3.47;;
9836;SDS011;4957;51.412;6.724;2023-03-20T17:53:50;8.80;;;2.60;;
9836;SDS011;4957;51.412;6.724;2023-03-20T17:56:19;10.50;;;3.00;;
9836;SDS011;4957;51.412;6.724;2023-03-20T17:58:45;12.20;;;3.07;;
9836;SDS011;4957;51.412;6.724;2023-03-20T18:01:11;5.50;;;3.07;;
9836;SDS011;4957;51.412;6.724;2023-03-20T18:03:38;7.37;;;3.60;;
9836;SDS011;4957;51.412;6.724;2023-03-20T18:06:04;8.67;;;3.80;;
9836;SDS011;4957;51.412;6.724;2023-03-20T18:08:31;7.47;;;3.50;;